Terminal Aerodrome Forecast
Issued by NWS

Home | Current Version | Previous Version | Text Only | Print | Product List | Glossary On
Versions: 1 2 3 4 5 6 7 8 9 10 11 12 13 14 15 16
000
FTUS43 KICT 250520
TAFCNU
TAF
KCNU 250520Z 2506/2606 02007KT P6SM OVC200
     FM251000 09009KT P6SM OVC150
     FM251700 13009KT P6SM OVC130
     FM252000 08013KT 5SM -RA OVC035=

USA.gov is the U.S. government's official web portal to all federal, state and local government web resources and services.